Terminal Aerodrome Forecast
Issued by NWS Charleston, WV

Current Version | Previous Version | Graphics & Text | Print | Product List | Glossary On
Versions: 1 2 3 4 5 6 7 8 9 10 11 12 13 14 15 16 17 18 19 20 21 22 23 24 25 26
000
FTUS41 KRLX 150822 AAA
TAFEKN
TAF AMD
KEKN 150822Z 1508/1606 00000KT 4SM BR FEW250
      TEMPO 1508/1510 1SM BR SCT002
     FM151000 00000KT 1/4SM FG OVC001
      TEMPO 1510/1513 2SM BR SCT002
     FM151300 21005KT P6SM FEW250
     FM151400 23009G19KT P6SM FEW120
     FM152200 24009KT P6SM BKN025
     FM160000 24008KT P6SM SHRA OVC008
     FM160200 28008KT 4SM SHRA BR OVC005
     FM160400 30008KT 3SM BR BKN003=

USA.gov is the U.S. government's official web portal to all federal, state and local government web resources and services.